sensor_id;sensor_type;location;lat;lon;timestamp;P1;durP1;ratioP1;P2;durP2;ratioP2
5722;SDS011;2886;49.722;8.612;2023-08-20T00:00:17;5.63;;;4.27;;
5722;SDS011;2886;49.722;8.612;2023-08-20T00:02:43;8.20;;;4.23;;
5722;SDS011;2886;49.722;8.612;2023-08-20T00:05:11;7.63;;;4.53;;
5722;SDS011;2886;49.722;8.612;2023-08-20T00:07:38;9.20;;;5.50;;
5722;SDS011;2886;49.722;8.612;2023-08-20T00:10:04;7.87;;;4.50;;
5722;SDS011;2886;49.722;8.612;2023-08-20T00:12:30;9.50;;;5.30;;
5722;SDS011;2886;49.722;8.612;2023-08-20T00:15:03;8.87;;;5.33;;
5722;SDS011;2886;49.722;8.612;2023-08-20T00:20:03;5.23;;;4.30;;
5722;SDS011;2886;49.722;8.612;2023-08-20T00:22:37;9.00;;;4.50;;
5722;SDS011;2886;49.722;8.612;2023-08-20T00:25:04;15.73;;;5.20;;
5722;SDS011;2886;49.722;8.612;2023-08-20T00:27:30;9.00;;;4.77;;
5722;SDS011;2886;49.722;8.612;2023-08-20T00:29:56;5.00;;;4.23;;
5722;SDS011;2886;49.722;8.612;2023-08-20T00:32:21;11.80;;;5.33;;
5722;SDS011;2886;49.722;8.612;2023-08-20T00:34:47;7.07;;;4.87;;
5722;SDS011;2886;49.722;8.612;2023-08-20T00:37:13;6.10;;;5.13;;
5722;SDS011;2886;49.722;8.612;2023-08-20T00:39:38;6.10;;;5.10;;
5722;SDS011;2886;49.722;8.612;2023-08-20T00:42:04;7.63;;;5.20;;
5722;SDS011;2886;49.722;8.612;2023-08-20T00:44:30;6.93;;;4.60;;
5722;SDS011;2886;49.722;8.612;2023-08-20T00:46:56;11.20;;;5.23;;
5722;SDS011;2886;49.722;8.612;2023-08-20T00:49:23;7.53;;;5.37;;
5722;SDS011;2886;49.722;8.612;2023-08-20T00:51:49;8.27;;;5.90;;
5722;SDS011;2886;49.722;8.612;2023-08-20T00:54:15;12.30;;;5.13;;
5722;SDS011;2886;49.722;8.612;2023-08-20T00:56:41;7.23;;;5.73;;
5722;SDS011;2886;49.722;8.612;2023-08-20T00:59:07;9.07;;;5.50;;
5722;SDS011;2886;49.722;8.612;2023-08-20T01:01:33;8.47;;;4.87;;
5722;SDS011;2886;49.722;8.612;2023-08-20T01:03:59;8.37;;;4.87;;
5722;SDS011;2886;49.722;8.612;2023-08-20T01:06:39;8.40;;;5.00;;
5722;SDS011;2886;49.722;8.612;2023-08-20T01:09:28;5.80;;;4.43;;
5722;SDS011;2886;49.722;8.612;2023-08-20T01:12:00;9.73;;;5.60;;
5722;SDS011;2886;49.722;8.612;2023-08-20T01:14:29;9.43;;;5.13;;
5722;SDS011;2886;49.722;8.612;2023-08-20T01:16:54;9.13;;;5.13;;
5722;SDS011;2886;49.722;8.612;2023-08-20T01:19:21;6.47;;;4.77;;
5722;SDS011;2886;49.722;8.612;2023-08-20T01:22:04;10.10;;;5.30;;
5722;SDS011;2886;49.722;8.612;2023-08-20T01:24:38;15.30;;;5.67;;
5722;SDS011;2886;49.722;8.612;2023-08-20T01:29:49;8.70;;;5.40;;
5722;SDS011;2886;49.722;8.612;2023-08-20T01:32:14;7.40;;;5.13;;
5722;SDS011;2886;49.722;8.612;2023-08-20T01:34:41;7.23;;;4.50;;
5722;SDS011;2886;49.722;8.612;2023-08-20T01:37:07;8.27;;;5.13;;
5722;SDS011;2886;49.722;8.612;2023-08-20T01:39:33;7.63;;;5.43;;
5722;SDS011;2886;49.722;8.612;2023-08-20T01:41:58;7.30;;;5.87;;
5722;SDS011;2886;49.722;8.612;2023-08-20T01:44:24;6.00;;;5.00;;
5722;SDS011;2886;49.722;8.612;2023-08-20T01:46:49;8.80;;;5.40;;
5722;SDS011;2886;49.722;8.612;2023-08-20T01:49:15;7.27;;;4.87;;
5722;SDS011;2886;49.722;8.612;2023-08-20T01:51:40;10.70;;;5.70;;
5722;SDS011;2886;49.722;8.612;2023-08-20T01:54:06;10.43;;;5.93;;
5722;SDS011;2886;49.722;8.612;2023-08-20T01:56:31;7.30;;;5.40;;
5722;SDS011;2886;49.722;8.612;2023-08-20T01:58:57;7.70;;;5.07;;
5722;SDS011;2886;49.722;8.612;2023-08-20T02:01:23;11.53;;;5.67;;
5722;SDS011;2886;49.722;8.612;2023-08-20T02:03:48;10.07;;;5.47;;
5722;SDS011;2886;49.722;8.612;2023-08-20T02:06:14;7.63;;;5.70;;
5722;SDS011;2886;49.722;8.612;2023-08-20T02:08:39;12.70;;;5.87;;
5722;SDS011;2886;49.722;8.612;2023-08-20T02:11:05;8.40;;;5.30;;
5722;SDS011;2886;49.722;8.612;2023-08-20T02:13:31;10.40;;;4.97;;
5722;SDS011;2886;49.722;8.612;2023-08-20T02:16:00;6.63;;;5.27;;
5722;SDS011;2886;49.722;8.612;2023-08-20T02:18:26;11.13;;;5.40;;
5722;SDS011;2886;49.722;8.612;2023-08-20T02:20:52;8.77;;;6.13;;
5722;SDS011;2886;49.722;8.612;2023-08-20T02:23:18;6.23;;;5.17;;
5722;SDS011;2886;49.722;8.612;2023-08-20T02:25:44;9.73;;;5.73;;
5722;SDS011;2886;49.722;8.612;2023-08-20T02:28:09;7.50;;;4.67;;
5722;SDS011;2886;49.722;8.612;2023-08-20T02:30:41;7.73;;;4.97;;
5722;SDS011;2886;49.722;8.612;2023-08-20T02:33:08;10.67;;;5.60;;
5722;SDS011;2886;49.722;8.612;2023-08-20T02:35:35;6.47;;;4.93;;
5722;SDS011;2886;49.722;8.612;2023-08-20T02:38:04;9.90;;;5.43;;
5722;SDS011;2886;49.722;8.612;2023-08-20T02:40:30;7.13;;;5.23;;
5722;SDS011;2886;49.722;8.612;2023-08-20T02:42:56;7.03;;;5.33;;
5722;SDS011;2886;49.722;8.612;2023-08-20T02:45:22;9.10;;;5.67;;
5722;SDS011;2886;49.722;8.612;2023-08-20T02:47:48;5.93;;;5.03;;
5722;SDS011;2886;49.722;8.612;2023-08-20T02:50:14;9.20;;;6.07;;
5722;SDS011;2886;49.722;8.612;2023-08-20T02:52:41;12.80;;;5.30;;
5722;SDS011;2886;49.722;8.612;2023-08-20T02:55:07;13.50;;;5.70;;
5722;SDS011;2886;49.722;8.612;2023-08-20T02:57:33;9.00;;;6.57;;
5722;SDS011;2886;49.722;8.612;2023-08-20T02:59:59;10.60;;;6.73;;
5722;SDS011;2886;49.722;8.612;2023-08-20T03:02:24;13.67;;;6.40;;
5722;SDS011;2886;49.722;8.612;2023-08-20T03:04:50;13.00;;;5.80;;
5722;SDS011;2886;49.722;8.612;2023-08-20T03:07:15;14.63;;;6.33;;
5722;SDS011;2886;49.722;8.612;2023-08-20T03:09:41;9.37;;;6.93;;
5722;SDS011;2886;49.722;8.612;2023-08-20T03:12:07;11.00;;;6.83;;
5722;SDS011;2886;49.722;8.612;2023-08-20T03:14:32;10.53;;;6.60;;
5722;SDS011;2886;49.722;8.612;2023-08-20T03:16:58;9.10;;;6.50;;
5722;SDS011;2886;49.722;8.612;2023-08-20T03:19:24;9.80;;;6.80;;
5722;SDS011;2886;49.722;8.612;2023-08-20T03:21:49;8.93;;;6.27;;
5722;SDS011;2886;49.722;8.612;2023-08-20T03:24:15;11.73;;;6.80;;
5722;SDS011;2886;49.722;8.612;2023-08-20T03:26:40;11.40;;;6.97;;
5722;SDS011;2886;49.722;8.612;2023-08-20T03:29:06;11.33;;;6.53;;
5722;SDS011;2886;49.722;8.612;2023-08-20T03:31:31;10.13;;;6.90;;
5722;SDS011;2886;49.722;8.612;2023-08-20T03:33:57;10.67;;;6.50;;
5722;SDS011;2886;49.722;8.612;2023-08-20T03:36:22;10.00;;;5.90;;
5722;SDS011;2886;49.722;8.612;2023-08-20T03:38:48;9.67;;;6.37;;
5722;SDS011;2886;49.722;8.612;2023-08-20T03:41:14;7.10;;;5.70;;
5722;SDS011;2886;49.722;8.612;2023-08-20T03:43:39;10.10;;;6.33;;
5722;SDS011;2886;49.722;8.612;2023-08-20T03:46:05;11.03;;;6.40;;
5722;SDS011;2886;49.722;8.612;2023-08-20T03:48:30;11.30;;;6.70;;
5722;SDS011;2886;49.722;8.612;2023-08-20T03:50:56;12.60;;;6.90;;
5722;SDS011;2886;49.722;8.612;2023-08-20T03:53:22;19.07;;;6.60;;
5722;SDS011;2886;49.722;8.612;2023-08-20T03:55:48;13.43;;;6.37;;
5722;SDS011;2886;49.722;8.612;2023-08-20T03:58:14;13.07;;;7.03;;
5722;SDS011;2886;49.722;8.612;2023-08-20T04:00:39;8.67;;;6.83;;
5722;SDS011;2886;49.722;8.612;2023-08-20T04:03:06;10.90;;;6.97;;
5722;SDS011;2886;49.722;8.612;2023-08-20T04:05:35;8.83;;;6.87;;
5722;SDS011;2886;49.722;8.612;2023-08-20T04:08:04;8.77;;;7.20;;
5722;SDS011;2886;49.722;8.612;2023-08-20T04:10:31;10.30;;;6.07;;
5722;SDS011;2886;49.722;8.612;2023-08-20T04:12:57;8.43;;;6.70;;
5722;SDS011;2886;49.722;8.612;2023-08-20T04:15:23;11.00;;;6.40;;
5722;SDS011;2886;49.722;8.612;2023-08-20T04:17:48;8.57;;;6.67;;
5722;SDS011;2886;49.722;8.612;2023-08-20T04:20:14;8.70;;;5.97;;
5722;SDS011;2886;49.722;8.612;2023-08-20T04:22:40;9.73;;;6.10;;
5722;SDS011;2886;49.722;8.612;2023-08-20T04:25:07;9.63;;;6.80;;
5722;SDS011;2886;49.722;8.612;2023-08-20T04:27:32;13.87;;;7.20;;
5722;SDS011;2886;49.722;8.612;2023-08-20T04:29:58;8.83;;;6.70;;
5722;SDS011;2886;49.722;8.612;2023-08-20T04:32:24;8.23;;;6.20;;
5722;SDS011;2886;49.722;8.612;2023-08-20T04:34:49;15.27;;;7.53;;
5722;SDS011;2886;49.722;8.612;2023-08-20T04:37:17;13.33;;;7.33;;
5722;SDS011;2886;49.722;8.612;2023-08-20T04:39:45;14.60;;;8.30;;
5722;SDS011;2886;49.722;8.612;2023-08-20T04:42:11;14.17;;;8.63;;
5722;SDS011;2886;49.722;8.612;2023-08-20T04:44:36;13.80;;;9.07;;
5722;SDS011;2886;49.722;8.612;2023-08-20T04:47:02;13.73;;;8.47;;
5722;SDS011;2886;49.722;8.612;2023-08-20T04:49:28;13.23;;;8.33;;
5722;SDS011;2886;49.722;8.612;2023-08-20T04:51:55;14.97;;;8.53;;
5722;SDS011;2886;49.722;8.612;2023-08-20T04:54:20;15.80;;;7.50;;
5722;SDS011;2886;49.722;8.612;2023-08-20T04:56:46;18.83;;;9.50;;
5722;SDS011;2886;49.722;8.612;2023-08-20T04:59:12;12.80;;;8.93;;
5722;SDS011;2886;49.722;8.612;2023-08-20T05:01:38;13.13;;;8.50;;
5722;SDS011;2886;49.722;8.612;2023-08-20T05:04:04;12.03;;;7.13;;
5722;SDS011;2886;49.722;8.612;2023-08-20T05:06:29;16.27;;;8.77;;
5722;SDS011;2886;49.722;8.612;2023-08-20T05:08:55;15.27;;;7.10;;
5722;SDS011;2886;49.722;8.612;2023-08-20T05:11:21;12.40;;;8.17;;
5722;SDS011;2886;49.722;8.612;2023-08-20T05:13:47;11.90;;;8.50;;
5722;SDS011;2886;49.722;8.612;2023-08-20T05:16:14;11.20;;;7.77;;
5722;SDS011;2886;49.722;8.612;2023-08-20T05:18:40;12.83;;;7.80;;
5722;SDS011;2886;49.722;8.612;2023-08-20T05:21:05;13.33;;;8.20;;
5722;SDS011;2886;49.722;8.612;2023-08-20T05:23:31;15.70;;;7.87;;
5722;SDS011;2886;49.722;8.612;2023-08-20T05:25:56;9.63;;;7.73;;
5722;SDS011;2886;49.722;8.612;2023-08-20T05:28:22;20.50;;;8.33;;
5722;SDS011;2886;49.722;8.612;2023-08-20T05:30:57;11.23;;;8.20;;
5722;SDS011;2886;49.722;8.612;2023-08-20T05:33:23;15.60;;;8.00;;
5722;SDS011;2886;49.722;8.612;2023-08-20T05:35:49;10.73;;;7.10;;
5722;SDS011;2886;49.722;8.612;2023-08-20T05:38:15;10.67;;;7.90;;
5722;SDS011;2886;49.722;8.612;2023-08-20T05:40:41;13.43;;;8.30;;
5722;SDS011;2886;49.722;8.612;2023-08-20T05:43:07;15.93;;;7.57;;
5722;SDS011;2886;49.722;8.612;2023-08-20T05:45:33;16.87;;;8.27;;
5722;SDS011;2886;49.722;8.612;2023-08-20T05:47:58;8.40;;;6.80;;
5722;SDS011;2886;49.722;8.612;2023-08-20T05:50:24;10.57;;;6.90;;
5722;SDS011;2886;49.722;8.612;2023-08-20T05:52:49;9.90;;;7.03;;
5722;SDS011;2886;49.722;8.612;2023-08-20T05:55:15;10.50;;;7.00;;
5722;SDS011;2886;49.722;8.612;2023-08-20T05:57:41;14.00;;;7.63;;
5722;SDS011;2886;49.722;8.612;2023-08-20T06:00:08;14.60;;;7.43;;
5722;SDS011;2886;49.722;8.612;2023-08-20T06:02:34;11.57;;;7.30;;
5722;SDS011;2886;49.722;8.612;2023-08-20T06:05:00;11.87;;;8.30;;
5722;SDS011;2886;49.722;8.612;2023-08-20T06:07:25;13.03;;;7.57;;
5722;SDS011;2886;49.722;8.612;2023-08-20T06:09:51;12.97;;;8.27;;
5722;SDS011;2886;49.722;8.612;2023-08-20T06:12:17;13.47;;;7.60;;
5722;SDS011;2886;49.722;8.612;2023-08-20T06:14:42;14.13;;;7.70;;
5722;SDS011;2886;49.722;8.612;2023-08-20T06:17:08;9.53;;;6.93;;
5722;SDS011;2886;49.722;8.612;2023-08-20T06:19:34;12.83;;;6.67;;
5722;SDS011;2886;49.722;8.612;2023-08-20T06:21:59;10.27;;;7.53;;
5722;SDS011;2886;49.722;8.612;2023-08-20T06:24:25;10.87;;;7.00;;
5722;SDS011;2886;49.722;8.612;2023-08-20T06:26:51;8.90;;;6.80;;
5722;SDS011;2886;49.722;8.612;2023-08-20T06:29:17;11.20;;;6.67;;
5722;SDS011;2886;49.722;8.612;2023-08-20T06:31:43;11.03;;;7.13;;
5722;SDS011;2886;49.722;8.612;2023-08-20T06:34:08;10.43;;;6.83;;
5722;SDS011;2886;49.722;8.612;2023-08-20T06:36:34;8.37;;;5.97;;
5722;SDS011;2886;49.722;8.612;2023-08-20T06:39:00;8.40;;;6.83;;
5722;SDS011;2886;49.722;8.612;2023-08-20T06:41:26;9.57;;;6.90;;
5722;SDS011;2886;49.722;8.612;2023-08-20T06:43:52;9.90;;;6.50;;
5722;SDS011;2886;49.722;8.612;2023-08-20T06:46:17;8.57;;;7.03;;
5722;SDS011;2886;49.722;8.612;2023-08-20T06:48:43;11.30;;;7.07;;
5722;SDS011;2886;49.722;8.612;2023-08-20T06:51:12;17.63;;;7.30;;
5722;SDS011;2886;49.722;8.612;2023-08-20T06:53:38;9.73;;;6.80;;
5722;SDS011;2886;49.722;8.612;2023-08-20T06:56:05;8.50;;;6.90;;
5722;SDS011;2886;49.722;8.612;2023-08-20T06:58:34;10.07;;;6.83;;
5722;SDS011;2886;49.722;8.612;2023-08-20T07:01:00;11.50;;;6.90;;
5722;SDS011;2886;49.722;8.612;2023-08-20T07:03:32;8.50;;;6.90;;
5722;SDS011;2886;49.722;8.612;2023-08-20T07:06:06;9.60;;;6.90;;
5722;SDS011;2886;49.722;8.612;2023-08-20T07:08:32;8.77;;;6.77;;
5722;SDS011;2886;49.722;8.612;2023-08-20T07:10:58;10.87;;;6.20;;
5722;SDS011;2886;49.722;8.612;2023-08-20T07:13:24;11.70;;;7.17;;
5722;SDS011;2886;49.722;8.612;2023-08-20T07:15:49;12.10;;;5.70;;
5722;SDS011;2886;49.722;8.612;2023-08-20T07:18:16;9.50;;;6.30;;
5722;SDS011;2886;49.722;8.612;2023-08-20T07:20:42;12.43;;;6.73;;
5722;SDS011;2886;49.722;8.612;2023-08-20T07:23:08;9.00;;;6.37;;
5722;SDS011;2886;49.722;8.612;2023-08-20T07:25:38;10.10;;;6.03;;
5722;SDS011;2886;49.722;8.612;2023-08-20T07:28:05;16.90;;;6.70;;
5722;SDS011;2886;49.722;8.612;2023-08-20T07:30:31;11.70;;;6.80;;
5722;SDS011;2886;49.722;8.612;2023-08-20T07:32:57;9.83;;;7.20;;
5722;SDS011;2886;49.722;8.612;2023-08-20T07:35:22;9.73;;;6.43;;
5722;SDS011;2886;49.722;8.612;2023-08-20T07:37:48;7.07;;;6.07;;
5722;SDS011;2886;49.722;8.612;2023-08-20T07:40:14;10.60;;;6.20;;
5722;SDS011;2886;49.722;8.612;2023-08-20T07:42:40;7.47;;;6.10;;
5722;SDS011;2886;49.722;8.612;2023-08-20T07:45:06;8.17;;;6.10;;
5722;SDS011;2886;49.722;8.612;2023-08-20T07:47:32;8.40;;;6.73;;
5722;SDS011;2886;49.722;8.612;2023-08-20T07:49:58;9.00;;;6.70;;
5722;SDS011;2886;49.722;8.612;2023-08-20T07:52:24;12.80;;;6.03;;
5722;SDS011;2886;49.722;8.612;2023-08-20T07:54:50;7.70;;;5.60;;
5722;SDS011;2886;49.722;8.612;2023-08-20T07:57:15;8.40;;;6.20;;
5722;SDS011;2886;49.722;8.612;2023-08-20T07:59:41;7.03;;;6.10;;
5722;SDS011;2886;49.722;8.612;2023-08-20T08:02:06;9.10;;;6.30;;
5722;SDS011;2886;49.722;8.612;2023-08-20T08:04:33;10.63;;;6.33;;
5722;SDS011;2886;49.722;8.612;2023-08-20T08:07:00;16.20;;;6.50;;
5722;SDS011;2886;49.722;8.612;2023-08-20T08:11:52;10.77;;;6.23;;
5722;SDS011;2886;49.722;8.612;2023-08-20T08:14:18;6.77;;;5.90;;
5722;SDS011;2886;49.722;8.612;2023-08-20T08:16:47;6.40;;;5.50;;
5722;SDS011;2886;49.722;8.612;2023-08-20T08:19:13;15.63;;;6.60;;
5722;SDS011;2886;49.722;8.612;2023-08-20T08:21:39;10.67;;;6.20;;
5722;SDS011;2886;49.722;8.612;2023-08-20T08:24:05;11.73;;;6.77;;
5722;SDS011;2886;49.722;8.612;2023-08-20T08:26:30;9.90;;;6.10;;
5722;SDS011;2886;49.722;8.612;2023-08-20T08:28:56;8.00;;;5.57;;
5722;SDS011;2886;49.722;8.612;2023-08-20T08:31:23;8.93;;;5.30;;
5722;SDS011;2886;49.722;8.612;2023-08-20T08:33:48;7.23;;;6.17;;
5722;SDS011;2886;49.722;8.612;2023-08-20T08:36:14;11.40;;;6.30;;
5722;SDS011;2886;49.722;8.612;2023-08-20T08:38:41;6.47;;;5.47;;
5722;SDS011;2886;49.722;8.612;2023-08-20T08:41:09;9.67;;;5.77;;
5722;SDS011;2886;49.722;8.612;2023-08-20T08:43:37;10.53;;;5.80;;
5722;SDS011;2886;49.722;8.612;2023-08-20T08:46:05;6.37;;;5.50;;
5722;SDS011;2886;49.722;8.612;2023-08-20T08:48:33;10.30;;;5.83;;
5722;SDS011;2886;49.722;8.612;2023-08-20T08:51:00;5.87;;;5.10;;
5722;SDS011;2886;49.722;8.612;2023-08-20T08:53:26;6.57;;;5.20;;
5722;SDS011;2886;49.722;8.612;2023-08-20T08:55:52;7.13;;;5.60;;
5722;SDS011;2886;49.722;8.612;2023-08-20T08:58:19;6.63;;;5.30;;
5722;SDS011;2886;49.722;8.612;2023-08-20T09:00:45;5.77;;;5.07;;
5722;SDS011;2886;49.722;8.612;2023-08-20T09:03:11;9.20;;;6.17;;
5722;SDS011;2886;49.722;8.612;2023-08-20T09:05:45;7.00;;;5.77;;
5722;SDS011;2886;49.722;8.612;2023-08-20T09:08:21;12.20;;;5.90;;
5722;SDS011;2886;49.722;8.612;2023-08-20T09:10:51;12.97;;;5.07;;
5722;SDS011;2886;49.722;8.612;2023-08-20T09:13:21;9.30;;;5.60;;
5722;SDS011;2886;49.722;8.612;2023-08-20T09:15:57;7.90;;;5.00;;
5722;SDS011;2886;49.722;8.612;2023-08-20T09:18:22;6.47;;;4.80;;
5722;SDS011;2886;49.722;8.612;2023-08-20T09:20:48;7.00;;;5.83;;
5722;SDS011;2886;49.722;8.612;2023-08-20T09:23:15;7.17;;;5.80;;
5722;SDS011;2886;49.722;8.612;2023-08-20T09:25:41;7.47;;;5.00;;
5722;SDS011;2886;49.722;8.612;2023-08-20T09:28:08;6.17;;;4.73;;
5722;SDS011;2886;49.722;8.612;2023-08-20T09:30:33;5.70;;;5.10;;
5722;SDS011;2886;49.722;8.612;2023-08-20T09:33:03;9.20;;;5.07;;
5722;SDS011;2886;49.722;8.612;2023-08-20T09:35:30;6.07;;;5.20;;
5722;SDS011;2886;49.722;8.612;2023-08-20T09:38:02;10.63;;;6.00;;
5722;SDS011;2886;49.722;8.612;2023-08-20T09:40:29;7.37;;;5.43;;
5722;SDS011;2886;49.722;8.612;2023-08-20T09:42:55;8.47;;;5.20;;
5722;SDS011;2886;49.722;8.612;2023-08-20T09:45:23;8.43;;;4.87;;
5722;SDS011;2886;49.722;8.612;2023-08-20T09:47:52;10.00;;;5.67;;
5722;SDS011;2886;49.722;8.612;2023-08-20T09:50:20;6.87;;;4.30;;
5722;SDS011;2886;49.722;8.612;2023-08-20T09:52:53;7.43;;;4.97;;
5722;SDS011;2886;49.722;8.612;2023-08-20T09:55:23;5.93;;;4.53;;
5722;SDS011;2886;49.722;8.612;2023-08-20T09:57:58;9.23;;;4.87;;
5722;SDS011;2886;49.722;8.612;2023-08-20T10:00:25;9.13;;;4.57;;
5722;SDS011;2886;49.722;8.612;2023-08-20T10:02:52;6.87;;;5.07;;
5722;SDS011;2886;49.722;8.612;2023-08-20T10:05:18;9.50;;;4.40;;
5722;SDS011;2886;49.722;8.612;2023-08-20T10:07:46;7.40;;;4.30;;
5722;SDS011;2886;49.722;8.612;2023-08-20T10:10:12;10.33;;;5.60;;
5722;SDS011;2886;49.722;8.612;2023-08-20T10:12:38;10.77;;;4.83;;
5722;SDS011;2886;49.722;8.612;2023-08-20T10:15:07;6.90;;;5.07;;
5722;SDS011;2886;49.722;8.612;2023-08-20T10:17:34;5.03;;;4.53;;
5722;SDS011;2886;49.722;8.612;2023-08-20T10:20:02;6.30;;;4.60;;
5722;SDS011;2886;49.722;8.612;2023-08-20T10:22:36;5.13;;;4.63;;
5722;SDS011;2886;49.722;8.612;2023-08-20T10:25:04;5.00;;;4.50;;
5722;SDS011;2886;49.722;8.612;2023-08-20T10:27:32;7.33;;;4.53;;
5722;SDS011;2886;49.722;8.612;2023-08-20T10:30:00;6.93;;;4.63;;
5722;SDS011;2886;49.722;8.612;2023-08-20T10:43:32;5.70;;;4.30;;
5722;SDS011;2886;49.722;8.612;2023-08-20T10:46:02;12.47;;;4.07;;
5722;SDS011;2886;49.722;8.612;2023-08-20T10:48:29;4.83;;;3.50;;
5722;SDS011;2886;49.722;8.612;2023-08-20T10:50:57;4.50;;;3.37;;
5722;SDS011;2886;49.722;8.612;2023-08-20T10:53:23;4.30;;;3.30;;
5722;SDS011;2886;49.722;8.612;2023-08-20T10:55:49;5.47;;;3.90;;
5722;SDS011;2886;49.722;8.612;2023-08-20T10:58:16;6.97;;;4.13;;
5722;SDS011;2886;49.722;8.612;2023-08-20T11:00:42;6.00;;;2.90;;
5722;SDS011;2886;49.722;8.612;2023-08-20T11:03:08;3.80;;;3.00;;
5722;SDS011;2886;49.722;8.612;2023-08-20T11:05:34;5.03;;;3.37;;
5722;SDS011;2886;49.722;8.612;2023-08-20T11:08:00;4.33;;;3.40;;
5722;SDS011;2886;49.722;8.612;2023-08-20T11:10:28;5.27;;;3.37;;
5722;SDS011;2886;49.722;8.612;2023-08-20T11:12:54;5.70;;;3.47;;
5722;SDS011;2886;49.722;8.612;2023-08-20T11:15:19;5.77;;;3.50;;
5722;SDS011;2886;49.722;8.612;2023-08-20T11:17:46;7.43;;;3.47;;
5722;SDS011;2886;49.722;8.612;2023-08-20T11:20:15;8.60;;;3.23;;
5722;SDS011;2886;49.722;8.612;2023-08-20T11:22:41;2.90;;;2.60;;
5722;SDS011;2886;49.722;8.612;2023-08-20T11:25:11;4.30;;;2.80;;
5722;SDS011;2886;49.722;8.612;2023-08-20T11:27:41;4.00;;;3.27;;
5722;SDS011;2886;49.722;8.612;2023-08-20T11:30:07;8.00;;;3.47;;
5722;SDS011;2886;49.722;8.612;2023-08-20T11:32:36;5.77;;;3.57;;
5722;SDS011;2886;49.722;8.612;2023-08-20T11:35:02;4.00;;;3.47;;
5722;SDS011;2886;49.722;8.612;2023-08-20T11:37:30;3.90;;;3.27;;
5722;SDS011;2886;49.722;8.612;2023-08-20T11:39:55;6.97;;;4.03;;
5722;SDS011;2886;49.722;8.612;2023-08-20T11:42:21;6.00;;;3.50;;
5722;SDS011;2886;49.722;8.612;2023-08-20T11:44:48;4.17;;;3.10;;
5722;SDS011;2886;49.722;8.612;2023-08-20T11:47:17;12.23;;;3.90;;
5722;SDS011;2886;49.722;8.612;2023-08-20T11:49:43;7.47;;;3.30;;
5722;SDS011;2886;49.722;8.612;2023-08-20T11:52:09;4.17;;;3.77;;
5722;SDS011;2886;49.722;8.612;2023-08-20T11:54:35;3.63;;;2.90;;
5722;SDS011;2886;49.722;8.612;2023-08-20T11:57:05;7.00;;;3.37;;
5722;SDS011;2886;49.722;8.612;2023-08-20T11:59:32;7.70;;;4.20;;
5722;SDS011;2886;49.722;8.612;2023-08-20T12:01:58;6.90;;;4.37;;
5722;SDS011;2886;49.722;8.612;2023-08-20T12:04:26;6.67;;;3.77;;
5722;SDS011;2886;49.722;8.612;2023-08-20T12:07:07;5.60;;;4.00;;
5722;SDS011;2886;49.722;8.612;2023-08-20T12:09:34;4.97;;;4.10;;
5722;SDS011;2886;49.722;8.612;2023-08-20T12:12:00;5.07;;;3.67;;
5722;SDS011;2886;49.722;8.612;2023-08-20T12:14:26;5.50;;;4.00;;
5722;SDS011;2886;49.722;8.612;2023-08-20T12:16:55;5.43;;;4.10;;
5722;SDS011;2886;49.722;8.612;2023-08-20T12:19:21;6.17;;;3.80;;
5722;SDS011;2886;49.722;8.612;2023-08-20T12:21:48;6.07;;;4.03;;
5722;SDS011;2886;49.722;8.612;2023-08-20T12:24:14;5.70;;;4.20;;
5722;SDS011;2886;49.722;8.612;2023-08-20T12:26:40;9.00;;;4.17;;
5722;SDS011;2886;49.722;8.612;2023-08-20T12:29:06;8.00;;;3.87;;
5722;SDS011;2886;49.722;8.612;2023-08-20T12:31:32;4.00;;;3.50;;
5722;SDS011;2886;49.722;8.612;2023-08-20T12:33:58;8.60;;;4.00;;
5722;SDS011;2886;49.722;8.612;2023-08-20T12:36:24;5.60;;;4.00;;
5722;SDS011;2886;49.722;8.612;2023-08-20T12:38:50;5.30;;;3.67;;
5722;SDS011;2886;49.722;8.612;2023-08-20T12:41:15;5.60;;;4.10;;
5722;SDS011;2886;49.722;8.612;2023-08-20T12:43:41;5.77;;;4.17;;
5722;SDS011;2886;49.722;8.612;2023-08-20T12:46:07;5.07;;;3.90;;
5722;SDS011;2886;49.722;8.612;2023-08-20T12:48:32;6.40;;;3.50;;
5722;SDS011;2886;49.722;8.612;2023-08-20T12:50:58;7.20;;;4.93;;
5722;SDS011;2886;49.722;8.612;2023-08-20T12:53:23;6.17;;;3.80;;
5722;SDS011;2886;49.722;8.612;2023-08-20T12:55:49;4.40;;;3.90;;
5722;SDS011;2886;49.722;8.612;2023-08-20T12:58:15;6.10;;;3.90;;
5722;SDS011;2886;49.722;8.612;2023-08-20T13:00:41;6.87;;;4.30;;
5722;SDS011;2886;49.722;8.612;2023-08-20T13:03:06;4.80;;;4.17;;
5722;SDS011;2886;49.722;8.612;2023-08-20T13:05:32;5.00;;;4.03;;
5722;SDS011;2886;49.722;8.612;2023-08-20T13:07:58;6.30;;;4.20;;
5722;SDS011;2886;49.722;8.612;2023-08-20T13:10:24;10.50;;;4.40;;
5722;SDS011;2886;49.722;8.612;2023-08-20T13:12:53;5.40;;;4.03;;
5722;SDS011;2886;49.722;8.612;2023-08-20T13:15:19;7.47;;;3.90;;
5722;SDS011;2886;49.722;8.612;2023-08-20T13:17:47;7.50;;;4.83;;
5722;SDS011;2886;49.722;8.612;2023-08-20T13:20:14;8.03;;;4.40;;
5722;SDS011;2886;49.722;8.612;2023-08-20T13:22:40;6.40;;;4.20;;
5722;SDS011;2886;49.722;8.612;2023-08-20T13:25:09;9.83;;;3.40;;
5722;SDS011;2886;49.722;8.612;2023-08-20T13:27:34;7.20;;;4.53;;
5722;SDS011;2886;49.722;8.612;2023-08-20T13:30:00;5.30;;;3.67;;
5722;SDS011;2886;49.722;8.612;2023-08-20T13:32:26;8.40;;;4.53;;
5722;SDS011;2886;49.722;8.612;2023-08-20T13:34:51;10.30;;;3.90;;
5722;SDS011;2886;49.722;8.612;2023-08-20T13:37:17;5.50;;;4.30;;
5722;SDS011;2886;49.722;8.612;2023-08-20T13:39:43;10.93;;;6.60;;
5722;SDS011;2886;49.722;8.612;2023-08-20T13:42:08;8.10;;;4.60;;
5722;SDS011;2886;49.722;8.612;2023-08-20T13:44:34;4.77;;;3.40;;
5722;SDS011;2886;49.722;8.612;2023-08-20T13:47:00;8.70;;;4.30;;
5722;SDS011;2886;49.722;8.612;2023-08-20T13:49:26;11.70;;;3.97;;
5722;SDS011;2886;49.722;8.612;2023-08-20T13:51:51;4.43;;;3.80;;
5722;SDS011;2886;49.722;8.612;2023-08-20T13:54:17;5.03;;;4.10;;
5722;SDS011;2886;49.722;8.612;2023-08-20T13:56:42;6.23;;;3.27;;
5722;SDS011;2886;49.722;8.612;2023-08-20T13:59:11;4.87;;;3.70;;
5722;SDS011;2886;49.722;8.612;2023-08-20T14:01:37;5.50;;;3.60;;
5722;SDS011;2886;49.722;8.612;2023-08-20T14:04:03;4.53;;;3.23;;
5722;SDS011;2886;49.722;8.612;2023-08-20T14:06:29;6.10;;;3.37;;
5722;SDS011;2886;49.722;8.612;2023-08-20T14:08:55;8.70;;;3.60;;
5722;SDS011;2886;49.722;8.612;2023-08-20T14:11:20;5.47;;;3.77;;
5722;SDS011;2886;49.722;8.612;2023-08-20T14:13:47;5.17;;;3.67;;
5722;SDS011;2886;49.722;8.612;2023-08-20T14:16:13;4.50;;;3.17;;
5722;SDS011;2886;49.722;8.612;2023-08-20T14:18:38;8.33;;;3.60;;
5722;SDS011;2886;49.722;8.612;2023-08-20T14:21:04;4.27;;;3.20;;
5722;SDS011;2886;49.722;8.612;2023-08-20T14:23:30;6.40;;;3.23;;
5722;SDS011;2886;49.722;8.612;2023-08-20T14:25:55;11.47;;;4.03;;
5722;SDS011;2886;49.722;8.612;2023-08-20T14:28:21;4.07;;;3.60;;
5722;SDS011;2886;49.722;8.612;2023-08-20T14:30:48;8.30;;;3.30;;
5722;SDS011;2886;49.722;8.612;2023-08-20T14:33:19;8.90;;;3.67;;
5722;SDS011;2886;49.722;8.612;2023-08-20T14:35:45;4.20;;;2.80;;
5722;SDS011;2886;49.722;8.612;2023-08-20T14:38:11;3.50;;;2.87;;
5722;SDS011;2886;49.722;8.612;2023-08-20T14:40:37;3.70;;;3.30;;
5722;SDS011;2886;49.722;8.612;2023-08-20T14:43:05;4.10;;;3.07;;
5722;SDS011;2886;49.722;8.612;2023-08-20T14:45:31;4.63;;;3.30;;
5722;SDS011;2886;49.722;8.612;2023-08-20T14:47:57;3.03;;;2.73;;
5722;SDS011;2886;49.722;8.612;2023-08-20T14:50:23;3.57;;;2.83;;
5722;SDS011;2886;49.722;8.612;2023-08-20T14:52:49;6.53;;;2.80;;
5722;SDS011;2886;49.722;8.612;2023-08-20T14:55:17;8.40;;;3.50;;
5722;SDS011;2886;49.722;8.612;2023-08-20T14:57:43;9.53;;;3.17;;
5722;SDS011;2886;49.722;8.612;2023-08-20T15:00:09;4.00;;;3.17;;
5722;SDS011;2886;49.722;8.612;2023-08-20T15:02:38;5.60;;;3.40;;
5722;SDS011;2886;49.722;8.612;2023-08-20T15:05:09;3.77;;;3.37;;
5722;SDS011;2886;49.722;8.612;2023-08-20T15:07:35;4.90;;;3.30;;
5722;SDS011;2886;49.722;8.612;2023-08-20T15:10:02;5.10;;;3.20;;
5722;SDS011;2886;49.722;8.612;2023-08-20T15:12:28;7.83;;;3.53;;
5722;SDS011;2886;49.722;8.612;2023-08-20T15:14:56;5.87;;;3.40;;
5722;SDS011;2886;49.722;8.612;2023-08-20T15:17:21;8.50;;;3.30;;
5722;SDS011;2886;49.722;8.612;2023-08-20T15:19:47;3.80;;;3.17;;
5722;SDS011;2886;49.722;8.612;2023-08-20T15:22:13;4.13;;;3.40;;
5722;SDS011;2886;49.722;8.612;2023-08-20T15:24:39;4.70;;;3.67;;